Time,TemperatureF,DewpointF,PressureIn,WindDirection,WindDirectionDegrees,WindSpeedMPH,WindSpeedGustMPH,Humidity,HourlyPrecipIn,Conditions,Clouds,dailyrainin,SoftwareType,DateUTC
2013-08-02 00:01:00,71.2,67.1,29.91,NW,313,0.0,11.0,87,15.11,,---,0.12,VWS V13.01,2013-08-02 04:01:00,
2013-08-02 00:06:00,71.0,66.9,29.91,NW,315,0.0,11.0,87,15.11,,---,0.12,VWS V13.01,2013-08-02 04:06:00,
2013-08-02 00:11:00,70.9,66.8,29.91,NW,315,0.0,11.0,87,15.11,,---,0.12,VWS V13.01,2013-08-02 04:11:00,
2013-08-02 00:15:00,70.8,66.7,29.90,NW,315,0.0,11.0,87,15.11,,---,0.12,VWS V13.01,2013-08-02 04:15:00,
2013-08-02 00:16:00,70.8,66.7,29.90,NW,315,0.0,11.0,87,15.11,,---,0.00,VWS V13.01,2013-08-02 04:16:00,
2013-08-02 00:21:00,70.7,67.0,29.90,NW,315,0.0,11.0,88,15.11,,---,0.00,VWS V13.01,2013-08-02 04:21:00,
2013-08-02 00:26:00,70.5,66.8,29.90,NW,315,0.0,11.0,88,15.11,,---,0.00,VWS V13.01,2013-08-02 04:26:00,
2013-08-02 00:31:00,70.3,66.9,29.90,NW,315,0.0,11.0,89,15.12,,---,0.01,VWS V13.01,2013-08-02 04:31:00,
2013-08-02 00:36:00,69.9,66.5,29.90,SSW,210,0.0,11.0,89,15.13,,---,0.02,VWS V13.01,2013-08-02 04:36:00,
2013-08-02 00:41:00,69.6,66.9,29.90,SSW,210,0.0,11.0,91,15.13,,---,0.03,VWS V13.01,2013-08-02 04:41:00,
2013-08-02 00:46:00,69.3,66.6,29.89,SSW,210,0.0,11.0,91,15.14,,---,0.03,VWS V13.01,2013-08-02 04:46:00,
2013-08-02 00:51:00,69.0,66.6,29.89,SSW,210,0.0,11.0,92,15.16,,---,0.06,VWS V13.01,2013-08-02 04:51:00,
2013-08-02 00:56:00,68.6,66.2,29.89,SW,218,0.0,11.0,92,15.18,,---,0.08,VWS V13.01,2013-08-02 04:56:00,
2013-08-02 01:01:00,68.1,66.0,29.91,ESE,107,0.0,11.0,93,15.23,,---,0.15,VWS V13.01,2013-08-02 05:01:00,
2013-08-02 01:06:00,67.8,66.0,29.91,NW,305,0.0,11.0,94,15.37,,---,0.27,VWS V13.01,2013-08-02 05:06:00,
2013-08-02 01:11:00,67.6,66.1,29.91,NW,305,0.0,11.0,95,15.45,,---,0.36,VWS V13.01,2013-08-02 05:11:00,
2013-08-02 01:16:00,67.5,66.0,29.89,NW,305,0.0,11.0,95,15.61,,---,0.50,VWS V13.01,2013-08-02 05:16:00,
2013-08-02 01:21:00,67.5,66.3,29.89,NW,305,0.0,11.0,96,15.66,,---,0.55,VWS V13.01,2013-08-02 05:21:00,
2013-08-02 01:26:00,67.4,66.2,29.89,NW,305,0.0,11.0,96,15.72,,---,0.62,VWS V13.01,2013-08-02 05:26:00,
2013-08-02 01:31:00,67.5,66.3,29.93,East,88,0.0,11.0,96,15.78,,---,0.68,VWS V13.01,2013-08-02 05:31:00,
2013-08-02 01:36:00,67.5,66.3,29.93,NNE,29,0.0,11.0,96,15.81,,---,0.70,VWS V13.01,2013-08-02 05:36:00,
2013-08-02 01:41:00,67.6,66.7,29.93,NE,53,0.0,11.0,97,15.85,,---,0.75,VWS V13.01,2013-08-02 05:41:00,
2013-08-02 01:46:00,67.6,66.7,29.91,NW,326,0.0,11.0,97,15.87,,---,0.76,VWS V13.01,2013-08-02 05:46:00,
2013-08-02 01:51:00,67.7,66.8,29.91,SE,124,0.0,11.0,97,15.88,,---,0.77,VWS V13.01,2013-08-02 05:51:00,
2013-08-02 01:56:00,67.8,66.9,29.91,SE,124,0.0,11.0,97,15.90,,---,0.80,VWS V13.01,2013-08-02 05:56:00,
2013-08-02 02:01:00,67.9,67.0,29.91,ESE,108,0.0,11.0,97,15.94,,---,0.84,VWS V13.01,2013-08-02 06:01:00,
2013-08-02 02:06:00,68.0,67.1,29.91,ESE,108,0.0,11.0,97,16.02,,---,0.92,VWS V13.01,2013-08-02 06:06:00,
2013-08-02 02:11:00,68.0,67.1,29.91,ESE,108,0.0,11.0,97,16.07,,---,0.96,VWS V13.01,2013-08-02 06:11:00,
2013-08-02 02:16:00,68.1,67.5,29.89,ESE,109,0.0,11.0,98,16.08,,---,0.97,VWS V13.01,2013-08-02 06:16:00,
2013-08-02 02:21:00,68.2,67.6,29.89,ESE,108,0.0,11.0,98,16.08,,---,0.97,VWS V13.01,2013-08-02 06:21:00,
2013-08-02 02:26:00,68.3,67.7,29.89,ESE,108,0.0,11.0,98,16.08,,---,0.97,VWS V13.01,2013-08-02 06:26:00,
2013-08-02 02:31:00,68.3,67.7,29.88,ESE,109,0.0,11.0,98,16.08,,---,0.97,VWS V13.01,2013-08-02 06:31:00,
2013-08-02 02:36:00,68.3,67.7,29.88,ESE,108,0.0,11.0,98,16.08,,---,0.97,VWS V13.01,2013-08-02 06:36:00,
2013-08-02 02:41:00,68.2,67.6,29.88,ESE,107,0.0,11.0,98,16.08,,---,0.97,VWS V13.01,2013-08-02 06:41:00,
2013-08-02 02:46:00,68.3,67.7,29.88,ESE,108,0.0,11.0,98,16.08,,---,0.97,VWS V13.01,2013-08-02 06:46:00,
2013-08-02 02:51:00,68.2,67.6,29.88,ESE,109,0.0,11.0,98,16.08,,---,0.97,VWS V13.01,2013-08-02 06:51:00,
2013-08-02 02:56:00,68.1,67.5,29.88,ESE,109,0.0,11.0,98,16.08,,---,0.97,VWS V13.01,2013-08-02 06:56:00,
2013-08-02 03:01:00,68.1,67.5,29.88,ESE,109,0.0,11.0,98,16.08,,---,0.97,VWS V13.01,2013-08-02 07:01:00,
2013-08-02 03:06:00,68.0,67.4,29.88,ESE,109,0.0,11.0,98,16.08,,---,0.97,VWS V13.01,2013-08-02 07:06:00,
2013-08-02 03:11:00,68.0,67.4,29.88,ESE,109,0.0,11.0,98,16.08,,---,0.97,VWS V13.01,2013-08-02 07:11:00,
2013-08-02 03:16:00,67.9,67.3,29.88,ESE,109,0.0,11.0,98,16.08,,---,0.97,VWS V13.01,2013-08-02 07:16:00,
2013-08-02 03:21:00,67.8,67.2,29.88,ESE,109,0.0,11.0,98,16.08,,---,0.97,VWS V13.01,2013-08-02 07:21:00,
2013-08-02 03:26:00,67.7,67.1,29.88,ESE,108,0.0,11.0,98,16.08,,---,0.97,VWS V13.01,2013-08-02 07:26:00,
2013-08-02 03:31:00,67.6,67.0,29.87,ESE,109,0.0,11.0,98,16.08,,---,0.97,VWS V13.01,2013-08-02 07:31:00,
2013-08-02 03:36:00,67.6,67.0,29.87,ESE,108,0.0,11.0,98,16.08,,---,0.97,VWS V13.01,2013-08-02 07:36:00,
2013-08-02 03:41:00,67.5,66.9,29.87,ESE,109,0.0,11.0,98,16.08,,---,0.97,VWS V13.01,2013-08-02 07:41:00,
2013-08-02 03:46:00,67.3,66.7,29.87,ESE,109,0.0,11.0,98,16.08,,---,0.97,VWS V13.01,2013-08-02 07:46:00,
2013-08-02 03:51:00,67.1,66.5,29.87,ESE,108,0.0,11.0,98,16.08,,---,0.97,VWS V13.01,2013-08-02 07:51:00,
2013-08-02 03:55:00,67.0,66.4,29.87,ESE,108,0.0,11.0,98,16.08,,---,0.97,VWS V13.01,2013-08-02 07:55:00,
2013-08-02 04:01:00,67.0,66.4,29.86,ESE,108,0.0,11.0,98,16.08,,---,0.97,VWS V13.01,2013-08-02 08:01:00,
2013-08-02 04:06:00,67.0,66.4,29.86,ESE,109,0.0,11.0,98,16.08,,---,0.97,VWS V13.01,2013-08-02 08:06:00,
2013-08-02 04:11:00,66.8,66.2,29.86,ESE,108,0.0,11.0,98,16.08,,---,0.97,VWS V13.01,2013-08-02 08:11:00,
2013-08-02 04:16:00,66.7,66.1,29.86,ESE,108,0.0,11.0,98,16.08,,---,0.97,VWS V13.01,2013-08-02 08:16:00,
2013-08-02 04:20:00,66.6,66.0,29.86,ESE,109,0.0,11.0,98,16.08,,---,0.97,VWS V13.01,2013-08-02 08:20:00,
2013-08-02 04:26:00,66.6,66.0,29.86,ESE,108,0.0,11.0,98,16.08,,---,0.97,VWS V13.01,2013-08-02 08:26:00,
2013-08-02 04:31:00,66.7,66.1,29.86,ESE,109,0.0,11.0,98,16.08,,---,0.97,VWS V13.01,2013-08-02 08:31:00,
2013-08-02 04:36:00,66.7,66.1,29.86,ESE,108,0.0,11.0,98,16.08,,---,0.97,VWS V13.01,2013-08-02 08:36:00,
2013-08-02 04:41:00,66.6,66.0,29.86,ESE,108,0.0,11.0,98,16.08,,---,0.97,VWS V13.01,2013-08-02 08:41:00,
2013-08-02 04:45:00,66.6,66.0,29.87,ESE,109,0.0,11.0,98,16.08,,---,0.97,VWS V13.01,2013-08-02 08:45:00,
2013-08-02 04:50:00,66.6,66.0,29.87,ESE,108,0.0,11.0,98,16.08,,---,0.97,VWS V13.01,2013-08-02 08:50:00,
2013-08-02 04:56:00,66.5,65.9,29.87,ESE,109,0.0,11.0,98,16.08,,---,0.97,VWS V13.01,2013-08-02 08:56:00,
2013-08-02 05:00:00,66.5,65.9,29.88,ESE,108,0.0,11.0,98,16.08,,---,0.97,VWS V13.01,2013-08-02 09:00:00,
2013-08-02 05:06:00,66.3,65.7,29.88,ESE,108,0.0,11.0,98,16.08,,---,0.97,VWS V13.01,2013-08-02 09:06:00,
2013-08-02 05:11:00,66.2,65.6,29.88,ESE,109,0.0,11.0,98,16.08,,---,0.97,VWS V13.01,2013-08-02 09:11:00,
2013-08-02 05:16:00,66.2,65.6,29.88,ESE,108,0.0,11.0,98,16.08,,---,0.97,VWS V13.01,2013-08-02 09:16:00,
2013-08-02 05:21:00,66.0,65.4,29.88,ESE,108,0.0,11.0,98,16.08,,---,0.97,VWS V13.01,2013-08-02 09:21:00,
2013-08-02 05:26:00,65.9,65.3,29.88,ESE,108,0.0,11.0,98,16.08,,---,0.97,VWS V13.01,2013-08-02 09:26:00,
2013-08-02 05:31:00,65.9,65.3,29.89,ESE,108,0.0,11.0,98,16.08,,---,0.97,VWS V13.01,2013-08-02 09:31:00,
2013-08-02 05:35:00,65.8,65.2,29.89,ESE,108,0.0,11.0,98,16.08,,---,0.97,VWS V13.01,2013-08-02 09:35:00,
2013-08-02 05:41:00,65.8,65.2,29.89,ESE,109,0.0,11.0,98,16.08,,---,0.97,VWS V13.01,2013-08-02 09:41:00,
2013-08-02 05:45:00,65.8,65.2,29.90,ESE,108,0.0,11.0,98,16.08,,---,0.97,VWS V13.01,2013-08-02 09:45:00,
2013-08-02 05:51:00,65.7,65.1,29.90,ESE,108,0.0,11.0,98,16.08,,---,0.97,VWS V13.01,2013-08-02 09:51:00,
2013-08-02 05:55:00,65.8,65.2,29.90,ESE,108,0.0,11.0,98,16.08,,---,0.97,VWS V13.01,2013-08-02 09:55:00,
2013-08-02 06:01:00,65.7,65.1,29.90,ESE,108,0.0,11.0,98,16.08,,---,0.97,VWS V13.01,2013-08-02 10:01:00,
2013-08-02 06:06:00,65.6,65.0,29.90,ESE,109,0.0,11.0,98,16.08,,---,0.97,VWS V13.01,2013-08-02 10:06:00,
2013-08-02 06:10:00,65.6,65.0,29.90,ESE,108,0.0,11.0,98,16.08,,---,0.97,VWS V13.01,2013-08-02 10:10:00,
2013-08-02 06:16:00,65.5,64.9,29.90,ESE,109,0.0,11.0,98,16.08,,---,0.97,VWS V13.01,2013-08-02 10:16:00,
2013-08-02 06:21:00,65.4,64.8,29.90,ESE,108,0.0,11.0,98,16.08,,---,0.97,VWS V13.01,2013-08-02 10:21:00,
2013-08-02 06:25:00,65.4,64.8,29.90,ESE,108,0.0,11.0,98,16.08,,---,0.97,VWS V13.01,2013-08-02 10:25:00,
2013-08-02 06:31:00,65.2,64.6,29.90,ESE,108,0.0,11.0,98,16.08,,---,0.97,VWS V13.01,2013-08-02 10:31:00,
2013-08-02 06:36:00,65.2,64.6,29.90,ESE,108,0.0,11.0,98,16.08,,---,0.97,VWS V13.01,2013-08-02 10:36:00,
2013-08-02 06:40:00,65.2,64.9,29.90,ESE,108,0.0,11.0,99,16.08,,---,0.97,VWS V13.01,2013-08-02 10:40:00,
2013-08-02 06:47:00,65.2,64.9,29.91,ESE,109,0.0,11.0,99,16.08,,---,0.97,VWS V13.01,2013-08-02 10:47:00,
2013-08-02 06:52:00,65.2,64.9,29.91,ESE,108,0.0,11.0,99,16.08,,---,0.97,VWS V13.01,2013-08-02 10:52:00,
2013-08-02 06:57:00,65.2,64.9,29.91,ESE,109,0.0,11.0,99,16.08,,---,0.97,VWS V13.01,2013-08-02 10:57:00,
2013-08-02 07:02:00,65.3,65.0,29.92,ESE,108,0.0,11.0,99,16.08,,---,0.97,VWS V13.01,2013-08-02 11:02:00,
2013-08-02 07:07:00,65.3,65.0,29.92,ESE,108,0.0,11.0,99,16.08,,---,0.97,VWS V13.01,2013-08-02 11:07:00,
2013-08-02 07:12:00,65.4,65.1,29.92,ESE,108,0.0,11.0,99,16.08,,---,0.97,VWS V13.01,2013-08-02 11:12:00,
2013-08-02 07:17:00,65.5,65.2,29.92,ESE,108,0.0,11.0,99,16.08,,---,0.97,VWS V13.01,2013-08-02 11:17:00,
2013-08-02 07:22:00,65.6,65.3,29.92,ESE,108,0.0,11.0,99,16.08,,---,0.97,VWS V13.01,2013-08-02 11:22:00,
2013-08-02 07:27:00,65.8,65.5,29.92,ESE,108,0.0,11.0,99,16.08,,---,0.97,VWS V13.01,2013-08-02 11:27:00,
2013-08-02 07:32:00,66.0,65.7,29.93,ESE,109,0.0,11.0,99,16.08,,---,0.97,VWS V13.01,2013-08-02 11:32:00,
2013-08-02 07:37:00,66.2,65.9,29.93,ESE,109,0.0,11.0,99,16.08,,---,0.97,VWS V13.01,2013-08-02 11:37:00,
2013-08-02 07:42:00,66.6,66.3,29.93,ESE,109,0.0,11.0,99,16.08,,---,0.97,VWS V13.01,2013-08-02 11:42:00,
2013-08-02 07:47:00,66.8,66.5,29.93,ESE,108,0.0,11.0,99,16.08,,---,0.97,VWS V13.01,2013-08-02 11:47:00,
2013-08-02 07:52:00,67.1,66.8,29.93,ESE,109,0.0,11.0,99,16.08,,---,0.97,VWS V13.01,2013-08-02 11:52:00,
2013-08-02 07:57:00,67.3,67.0,29.93,ESE,109,0.0,11.0,99,16.08,,---,0.97,VWS V13.01,2013-08-02 11:57:00,
2013-08-02 08:02:00,67.7,67.4,29.94,ESE,109,0.0,11.0,99,16.08,,---,0.97,VWS V13.01,2013-08-02 12:02:00,
2013-08-02 08:07:00,68.0,67.7,29.94,ESE,108,0.0,11.0,99,16.08,,---,0.97,VWS V13.01,2013-08-02 12:07:00,
2013-08-02 08:12:00,68.3,68.0,29.94,ESE,109,0.0,11.0,99,16.08,,---,0.97,VWS V13.01,2013-08-02 12:12:00,
2013-08-02 08:17:00,68.6,68.3,29.94,ESE,109,0.0,11.0,99,16.08,,---,0.97,VWS V13.01,2013-08-02 12:17:00,
2013-08-02 08:22:00,68.9,68.6,29.94,ESE,108,0.0,11.0,99,16.08,,---,0.97,VWS V13.01,2013-08-02 12:22:00,
2013-08-02 08:27:00,69.2,68.9,29.94,ESE,109,0.0,11.0,99,16.08,,---,0.97,VWS V13.01,2013-08-02 12:27:00,
2013-08-02 08:32:00,69.4,69.1,29.95,ESE,108,0.0,11.0,99,16.08,,---,0.97,VWS V13.01,2013-08-02 12:32:00,
2013-08-02 08:37:00,69.6,69.3,29.95,ESE,109,0.0,11.0,99,16.08,,---,0.97,VWS V13.01,2013-08-02 12:37:00,
2013-08-02 08:42:00,69.8,69.5,29.95,ESE,109,0.0,11.0,99,16.08,,---,0.97,VWS V13.01,2013-08-02 12:42:00,
2013-08-02 08:47:00,69.8,69.5,29.96,East,101,0.0,11.0,99,16.08,,---,0.97,VWS V13.01,2013-08-02 12:47:00,
2013-08-02 08:52:00,69.7,69.4,29.96,East,101,0.0,11.0,99,16.08,,---,0.97,VWS V13.01,2013-08-02 12:52:00,
2013-08-02 08:57:00,70.0,69.7,29.96,East,101,0.0,11.0,99,16.08,,---,0.97,VWS V13.01,2013-08-02 12:57:00,
2013-08-02 09:02:00,70.0,69.7,29.96,ESE,102,0.0,11.0,99,16.08,,---,0.97,VWS V13.01,2013-08-02 13:02:00,
2013-08-02 09:07:00,70.3,70.0,29.96,East,101,0.0,11.0,99,16.08,,---,0.97,VWS V13.01,2013-08-02 13:07:00,
2013-08-02 09:12:00,70.6,70.3,29.96,East,101,0.0,11.0,99,16.08,,---,0.97,VWS V13.01,2013-08-02 13:12:00,
2013-08-02 09:17:00,70.8,70.5,29.96,East,101,0.0,11.0,99,16.08,,---,0.97,VWS V13.01,2013-08-02 13:17:00,
2013-08-02 09:22:00,71.0,70.7,29.96,ESE,102,0.0,11.0,99,16.08,,---,0.97,VWS V13.01,2013-08-02 13:22:00,
2013-08-02 09:27:00,71.5,71.2,29.96,ESE,102,0.0,11.0,99,16.08,,---,0.97,VWS V13.01,2013-08-02 13:27:00,
2013-08-02 09:32:00,72.0,71.7,29.96,East,101,0.0,11.0,99,16.08,,---,0.97,VWS V13.01,2013-08-02 13:32:00,
2013-08-02 09:37:00,73.0,72.7,29.96,East,101,0.0,11.0,99,16.08,,---,0.97,VWS V13.01,2013-08-02 13:37:00,
2013-08-02 09:42:00,73.6,73.0,29.96,East,101,0.0,11.0,98,16.08,,---,0.97,VWS V13.01,2013-08-02 13:42:00,
2013-08-02 09:47:00,74.1,72.9,29.96,East,101,0.0,11.0,96,16.08,,---,0.97,VWS V13.01,2013-08-02 13:47:00,
2013-08-02 09:52:00,74.3,72.5,29.96,ESE,102,0.0,11.0,94,16.08,,---,0.97,VWS V13.01,2013-08-02 13:52:00,
2013-08-02 09:57:00,74.8,72.6,29.96,East,101,0.0,11.0,93,16.08,,---,0.97,VWS V13.01,2013-08-02 13:57:00,
2013-08-02 10:02:00,75.2,72.7,29.96,East,101,0.0,11.0,92,16.08,,---,0.97,VWS V13.01,2013-08-02 14:02:00,
2013-08-02 10:07:00,75.6,72.1,29.96,North,11,0.0,11.0,89,16.08,,---,0.97,VWS V13.01,2013-08-02 14:07:00,
2013-08-02 10:12:00,76.2,73.1,29.96,North,11,0.0,11.0,90,16.08,,---,0.97,VWS V13.01,2013-08-02 14:12:00,
2013-08-02 10:17:00,77.1,74.3,29.96,NNE,12,0.0,11.0,91,16.08,,---,0.97,VWS V13.01,2013-08-02 14:17:00,
2013-08-02 10:22:00,78.1,74.3,29.96,North,10,0.0,11.0,88,16.08,,---,0.97,VWS V13.01,2013-08-02 14:22:00,
2013-08-02 10:27:00,78.8,74.6,29.96,NE,44,0.0,11.0,87,16.08,,---,0.97,VWS V13.01,2013-08-02 14:27:00,
2013-08-02 10:32:00,79.4,73.8,29.96,NE,44,0.0,11.0,83,16.08,,---,0.97,VWS V13.01,2013-08-02 14:32:00,
2013-08-02 10:37:00,79.7,74.4,29.96,NE,44,0.0,11.0,84,16.08,,---,0.97,VWS V13.01,2013-08-02 14:37:00,
2013-08-02 10:42:00,80.0,73.3,29.96,NE,44,0.0,11.0,80,16.08,,---,0.97,VWS V13.01,2013-08-02 14:42:00,
2013-08-02 10:47:00,80.3,74.3,29.97,NE,44,0.0,11.0,82,16.08,,---,0.97,VWS V13.01,2013-08-02 14:47:00,
2013-08-02 10:52:00,81.2,74.1,29.97,NE,43,0.0,11.0,79,16.08,,---,0.97,VWS V13.01,2013-08-02 14:52:00,
2013-08-02 10:57:00,81.8,73.9,29.97,NE,42,0.0,11.0,77,16.08,,---,0.97,VWS V13.01,2013-08-02 14:57:00,
2013-08-02 11:02:00,81.8,74.7,29.96,NE,42,0.0,11.0,79,16.08,,---,0.97,VWS V13.01,2013-08-02 15:02:00,
2013-08-02 11:07:00,82.3,75.9,29.96,NE,43,0.0,11.0,81,16.08,,---,0.97,VWS V13.01,2013-08-02 15:07:00,
2013-08-02 11:12:00,82.5,73.8,29.96,NE,34,0.0,11.0,75,16.08,,---,0.97,VWS V13.01,2013-08-02 15:12:00,
2013-08-02 11:17:00,82.3,73.6,29.97,NE,34,0.0,11.0,75,16.08,,---,0.97,VWS V13.01,2013-08-02 15:17:00,
2013-08-02 11:22:00,82.6,74.3,29.97,NE,34,0.0,11.0,76,16.08,,---,0.97,VWS V13.01,2013-08-02 15:22:00,
2013-08-02 11:27:00,82.8,73.3,29.97,NNE,30,0.0,11.0,73,16.08,,---,0.97,VWS V13.01,2013-08-02 15:27:00,
2013-08-02 11:32:00,83.6,74.0,29.97,NNE,30,0.0,11.0,73,16.08,,---,0.97,VWS V13.01,2013-08-02 15:32:00,
2013-08-02 11:37:00,83.8,73.0,29.97,NE,42,0.0,11.0,70,16.08,,---,0.97,VWS V13.01,2013-08-02 15:37:00,
2013-08-02 11:42:00,84.5,73.2,29.97,NNW,333,0.0,11.0,69,16.08,,---,0.97,VWS V13.01,2013-08-02 15:42:00,
2013-08-02 11:47:00,85.5,74.6,29.97,NNW,335,0.0,11.0,70,16.08,,---,0.97,VWS V13.01,2013-08-02 15:47:00,
2013-08-02 11:52:00,85.7,73.5,29.97,West,259,0.0,11.0,67,16.08,,---,0.97,VWS V13.01,2013-08-02 15:52:00,
2013-08-02 11:57:00,86.2,73.5,29.97,West,259,0.0,11.0,66,16.08,,---,0.97,VWS V13.01,2013-08-02 15:57:00,
2013-08-02 12:02:00,86.5,73.8,29.97,West,259,0.0,11.0,66,16.08,,---,0.97,VWS V13.01,2013-08-02 16:02:00,
2013-08-02 12:07:00,86.1,73.4,29.97,SSW,205,0.0,11.0,66,16.08,,---,0.97,VWS V13.01,2013-08-02 16:07:00,
2013-08-02 12:12:00,85.0,72.8,29.97,WSW,243,0.0,11.0,67,16.08,,---,0.97,VWS V13.01,2013-08-02 16:12:00,
2013-08-02 12:17:00,85.5,71.9,29.97,WSW,243,0.0,11.0,64,16.08,,---,0.97,VWS V13.01,2013-08-02 16:17:00,
2013-08-02 12:22:00,85.9,73.7,29.97,WSW,243,0.0,11.0,67,16.08,,---,0.97,VWS V13.01,2013-08-02 16:22:00,
2013-08-02 12:27:00,86.7,75.3,29.97,WSW,242,0.0,11.0,69,16.08,,---,0.97,VWS V13.01,2013-08-02 16:27:00,
2013-08-02 12:32:00,87.7,74.0,29.97,WSW,242,0.0,11.0,64,16.08,,---,0.97,VWS V13.01,2013-08-02 16:32:00,
2013-08-02 12:37:00,88.2,73.6,29.97,WSW,243,0.0,11.0,62,16.08,,---,0.97,VWS V13.01,2013-08-02 16:37:00,
2013-08-02 12:42:00,88.7,73.5,29.97,West,266,0.0,11.0,61,16.08,,---,0.97,VWS V13.01,2013-08-02 16:42:00,
2013-08-02 12:47:00,89.7,75.9,29.97,West,267,0.0,11.0,64,16.08,,---,0.97,VWS V13.01,2013-08-02 16:47:00,
2013-08-02 12:52:00,89.6,72.4,29.97,West,266,0.0,11.0,57,16.08,,---,0.97,VWS V13.01,2013-08-02 16:52:00,
2013-08-02 12:57:00,89.6,74.9,29.97,West,263,0.0,11.0,62,16.08,,---,0.97,VWS V13.01,2013-08-02 16:57:00,
2013-08-02 13:02:00,89.8,73.1,29.97,West,262,1.0,11.0,58,16.08,,---,0.97,VWS V13.01,2013-08-02 17:02:00,
2013-08-02 13:07:00,89.9,74.7,29.97,West,264,0.0,11.0,61,16.08,,---,0.97,VWS V13.01,2013-08-02 17:07:00,
2013-08-02 13:12:00,89.9,74.2,29.97,West,264,0.0,11.0,60,16.08,,---,0.97,VWS V13.01,2013-08-02 17:12:00,
2013-08-02 13:17:00,90.3,72.5,29.97,West,260,0.0,11.0,56,16.08,,---,0.97,VWS V13.01,2013-08-02 17:17:00,
2013-08-02 13:22:00,90.6,71.7,29.97,West,260,0.0,11.0,54,16.08,,---,0.97,VWS V13.01,2013-08-02 17:22:00,
2013-08-02 13:27:00,90.6,74.3,29.97,East,98,0.0,11.0,59,16.08,,---,0.97,VWS V13.01,2013-08-02 17:27:00,
2013-08-02 13:32:00,91.0,74.2,29.96,East,98,0.0,11.0,58,16.08,,---,0.97,VWS V13.01,2013-08-02 17:32:00,
2013-08-02 13:37:00,90.6,74.3,29.96,East,97,0.0,11.0,59,16.08,,---,0.97,VWS V13.01,2013-08-02 17:37:00,
2013-08-02 13:42:00,89.8,72.6,29.96,East,80,0.0,11.0,57,16.08,,---,0.97,VWS V13.01,2013-08-02 17:42:00,
2013-08-02 13:43:00,89.7,71.4,29.96,East,86,0.0,11.0,55,16.08,,---,0.97,VWS V13.01,2013-08-02 17:43:00,
2013-08-02 13:48:00,89.3,72.6,29.95,NW,326,1.0,11.0,58,16.08,,---,0.97,VWS V13.01,2013-08-02 17:48:00,
2013-08-02 13:53:00,88.8,72.1,29.95,NW,326,0.0,11.0,58,16.08,,---,0.97,VWS V13.01,2013-08-02 17:53:00,
2013-08-02 13:58:00,88.5,74.8,29.95,NW,316,0.0,11.0,64,16.08,,---,0.97,VWS V13.01,2013-08-02 17:58:00,
2013-08-02 14:03:00,89.0,75.7,29.95,NW,318,0.0,11.0,65,16.08,,---,0.97,VWS V13.01,2013-08-02 18:03:00,
2013-08-02 14:08:00,89.6,72.4,29.95,SE,140,0.0,11.0,57,16.08,,---,0.97,VWS V13.01,2013-08-02 18:08:00,
2013-08-02 14:13:00,89.1,73.4,29.95,SE,139,0.0,11.0,60,16.08,,---,0.97,VWS V13.01,2013-08-02 18:13:00,
2013-08-02 14:18:00,89.1,73.4,29.95,SE,140,0.0,11.0,60,16.08,,---,0.97,VWS V13.01,2013-08-02 18:18:00,
2013-08-02 14:23:00,88.8,70.6,29.95,SSW,205,0.0,11.0,55,16.08,,---,0.97,VWS V13.01,2013-08-02 18:23:00,
2013-08-02 14:28:00,89.0,70.2,29.95,NE,41,0.0,11.0,54,16.08,,---,0.97,VWS V13.01,2013-08-02 18:28:00,
2013-08-02 14:33:00,88.8,70.0,29.95,ESE,114,1.0,11.0,54,16.08,,---,0.97,VWS V13.01,2013-08-02 18:33:00,
2013-08-02 14:38:00,88.8,68.4,29.95,SE,129,0.0,11.0,51,16.08,,---,0.97,VWS V13.01,2013-08-02 18:38:00,
2013-08-02 14:43:00,89.1,68.1,29.95,ESE,114,0.0,11.0,50,16.08,,---,0.97,VWS V13.01,2013-08-02 18:43:00,
2013-08-02 14:48:00,89.7,71.4,29.95,ESE,111,0.0,11.0,55,16.08,,---,0.97,VWS V13.01,2013-08-02 18:48:00,
2013-08-02 14:53:00,90.5,69.9,29.95,ESE,111,0.0,11.0,51,16.08,,---,0.97,VWS V13.01,2013-08-02 18:53:00,
2013-08-02 14:58:00,90.0,72.2,29.95,NNW,331,0.0,11.0,56,16.08,,---,0.97,VWS V13.01,2013-08-02 18:58:00,
2013-08-02 15:03:00,90.2,71.3,29.94,ESE,108,0.0,11.0,54,16.08,,---,0.97,VWS V13.01,2013-08-02 19:03:00,
2013-08-02 15:08:00,89.5,70.7,29.94,NW,319,1.0,11.0,54,16.08,,---,0.97,VWS V13.01,2013-08-02 19:08:00,
2013-08-02 15:13:00,88.8,72.6,29.94,NW,321,0.0,11.0,59,16.08,,---,0.97,VWS V13.01,2013-08-02 19:13:00,
2013-08-02 15:18:00,89.0,73.8,29.94,ESE,111,1.0,11.0,61,16.08,,---,0.97,VWS V13.01,2013-08-02 19:18:00,
2013-08-02 15:23:00,89.6,73.4,29.94,NW,319,0.0,11.0,59,16.08,,---,0.97,VWS V13.01,2013-08-02 19:23:00,
2013-08-02 15:28:00,88.2,73.1,29.94,NW,319,0.0,11.0,61,16.08,,---,0.97,VWS V13.01,2013-08-02 19:28:00,
2013-08-02 15:33:00,87.6,73.5,29.94,NW,319,0.0,11.0,63,16.08,,---,0.97,VWS V13.01,2013-08-02 19:33:00,
2013-08-02 15:38:00,87.3,74.1,29.94,NW,319,0.0,11.0,65,16.08,,---,0.97,VWS V13.01,2013-08-02 19:38:00,
2013-08-02 15:43:00,87.5,73.8,29.94,NW,319,0.0,11.0,64,16.08,,---,0.97,VWS V13.01,2013-08-02 19:43:00,
2013-08-02 15:48:00,87.9,73.3,29.94,NW,321,0.0,11.0,62,16.08,,---,0.97,VWS V13.01,2013-08-02 19:48:00,
2013-08-02 15:53:00,87.8,71.7,29.94,NW,321,0.0,11.0,59,16.08,,---,0.97,VWS V13.01,2013-08-02 19:53:00,
2013-08-02 15:58:00,88.2,72.6,29.94,NW,321,0.0,11.0,60,16.08,,---,0.97,VWS V13.01,2013-08-02 19:58:00,
2013-08-02 16:03:00,88.7,72.0,29.94,NW,319,0.0,11.0,58,16.08,,---,0.97,VWS V13.01,2013-08-02 20:03:00,
2013-08-02 16:08:00,89.1,71.4,29.94,ESE,106,0.0,11.0,56,16.08,,---,0.97,VWS V13.01,2013-08-02 20:08:00,
2013-08-02 16:13:00,88.6,71.9,29.94,NW,312,0.0,11.0,58,16.08,,---,0.97,VWS V13.01,2013-08-02 20:13:00,
2013-08-02 16:18:00,88.5,72.8,29.93,South,179,0.0,11.0,60,16.08,,---,0.97,VWS V13.01,2013-08-02 20:18:00,
2013-08-02 16:23:00,88.5,73.8,29.93,South,176,0.0,11.0,62,16.08,,---,0.97,VWS V13.01,2013-08-02 20:23:00,
2013-08-02 16:28:00,88.1,74.9,29.93,South,176,0.0,11.0,65,16.08,,---,0.97,VWS V13.01,2013-08-02 20:28:00,
2013-08-02 16:33:00,87.8,71.2,29.93,South,176,0.0,11.0,58,16.08,,---,0.97,VWS V13.01,2013-08-02 20:33:00,
2013-08-02 16:38:00,87.1,71.5,29.93,South,177,0.0,11.0,60,16.08,,---,0.97,VWS V13.01,2013-08-02 20:38:00,
2013-08-02 16:43:00,87.3,73.6,29.93,South,176,0.0,11.0,64,16.08,,---,0.97,VWS V13.01,2013-08-02 20:43:00,
2013-08-02 16:48:00,87.7,72.6,29.93,NW,319,1.0,11.0,61,16.08,,---,0.97,VWS V13.01,2013-08-02 20:48:00,
2013-08-02 16:53:00,87.2,71.6,29.93,NW,323,0.0,11.0,60,16.08,,---,0.97,VWS V13.01,2013-08-02 20:53:00,
2013-08-02 16:58:00,87.1,73.4,29.93,NW,323,0.0,11.0,64,16.08,,---,0.97,VWS V13.01,2013-08-02 20:58:00,
2013-08-02 17:03:00,87.0,72.9,29.93,NW,323,0.0,11.0,63,16.08,,---,0.97,VWS V13.01,2013-08-02 21:03:00,
2013-08-02 17:08:00,86.8,72.7,29.93,NW,321,0.0,11.0,63,16.08,,---,0.97,VWS V13.01,2013-08-02 21:08:00,
2013-08-02 17:13:00,86.3,71.3,29.93,NW,321,0.0,11.0,61,16.08,,---,0.97,VWS V13.01,2013-08-02 21:13:00,
2013-08-02 17:18:00,86.1,71.6,29.93,NNW,335,0.0,11.0,62,16.08,,---,0.97,VWS V13.01,2013-08-02 21:18:00,
2013-08-02 17:23:00,85.9,72.3,29.93,ENE,73,0.0,11.0,64,16.08,,---,0.97,VWS V13.01,2013-08-02 21:23:00,
2013-08-02 17:28:00,85.6,72.9,29.93,ENE,72,0.0,11.0,66,16.08,,---,0.97,VWS V13.01,2013-08-02 21:28:00,
2013-08-02 17:33:00,85.0,70.5,29.93,East,82,0.0,11.0,62,16.08,,---,0.97,VWS V13.01,2013-08-02 21:33:00,
2013-08-02 17:38:00,84.6,71.6,29.93,East,85,0.0,11.0,65,16.08,,---,0.97,VWS V13.01,2013-08-02 21:38:00,
2013-08-02 17:43:00,84.3,74.3,29.93,East,85,0.0,11.0,72,16.08,,---,0.97,VWS V13.01,2013-08-02 21:43:00,
2013-08-02 17:48:00,83.8,70.3,29.93,East,85,0.0,11.0,64,16.08,,---,0.97,VWS V13.01,2013-08-02 21:48:00,
2013-08-02 17:53:00,83.3,70.8,29.93,East,85,0.0,11.0,66,16.08,,---,0.97,VWS V13.01,2013-08-02 21:53:00,
2013-08-02 17:58:00,83.0,72.2,29.93,East,85,0.0,11.0,70,16.08,,---,0.97,VWS V13.01,2013-08-02 21:58:00,
2013-08-02 18:03:00,82.7,71.9,29.93,East,85,0.0,11.0,70,16.08,,---,0.97,VWS V13.01,2013-08-02 22:03:00,
2013-08-02 18:08:00,82.5,73.4,29.93,East,86,0.0,11.0,74,16.08,,---,0.97,VWS V13.01,2013-08-02 22:08:00,
2013-08-02 18:13:00,82.4,72.5,29.93,East,86,0.0,11.0,72,16.08,,---,0.97,VWS V13.01,2013-08-02 22:13:00,
2013-08-02 18:18:00,82.0,72.9,29.93,East,86,0.0,11.0,74,16.08,,---,0.97,VWS V13.01,2013-08-02 22:18:00,
2013-08-02 18:23:00,81.8,73.9,29.93,East,86,0.0,11.0,77,16.08,,---,0.97,VWS V13.01,2013-08-02 22:23:00,
2013-08-02 18:28:00,81.5,74.0,29.93,East,86,0.0,11.0,78,16.08,,---,0.97,VWS V13.01,2013-08-02 22:28:00,
2013-08-02 18:33:00,81.3,74.5,29.93,East,86,0.0,11.0,80,16.08,,---,0.97,VWS V13.01,2013-08-02 22:33:00,
2013-08-02 18:38:00,81.0,73.9,29.93,East,86,0.0,11.0,79,16.08,,---,0.97,VWS V13.01,2013-08-02 22:38:00,
2013-08-02 18:43:00,80.8,74.4,29.93,East,86,0.0,11.0,81,16.08,,---,0.97,VWS V13.01,2013-08-02 22:43:00,
2013-08-02 18:48:00,80.7,74.7,29.93,East,86,0.0,11.0,82,16.08,,---,0.97,VWS V13.01,2013-08-02 22:48:00,
2013-08-02 18:53:00,80.4,74.4,29.93,East,86,0.0,11.0,82,16.08,,---,0.97,VWS V13.01,2013-08-02 22:53:00,
2013-08-02 18:58:00,80.0,74.4,29.93,East,86,0.0,11.0,83,16.08,,---,0.97,VWS V13.01,2013-08-02 22:58:00,
2013-08-02 19:03:00,79.7,74.1,29.93,East,86,0.0,11.0,83,16.08,,---,0.97,VWS V13.01,2013-08-02 23:03:00,
2013-08-02 19:08:00,79.4,73.8,29.93,East,86,0.0,11.0,83,16.08,,---,0.97,VWS V13.01,2013-08-02 23:08:00,
2013-08-02 19:13:00,79.2,74.3,29.93,East,86,0.0,11.0,85,16.08,,---,0.97,VWS V13.01,2013-08-02 23:13:00,
2013-08-02 19:18:00,78.9,74.4,29.93,East,86,0.0,11.0,86,16.08,,---,0.97,VWS V13.01,2013-08-02 23:18:00,
2013-08-02 19:23:00,78.6,74.1,29.93,East,86,0.0,11.0,86,16.08,,---,0.97,VWS V13.01,2013-08-02 23:23:00,
2013-08-02 19:28:00,78.3,73.8,29.93,East,86,0.0,11.0,86,16.08,,---,0.97,VWS V13.01,2013-08-02 23:28:00,
2013-08-02 19:33:00,77.8,73.6,29.93,East,86,0.0,11.0,87,16.08,,---,0.97,VWS V13.01,2013-08-02 23:33:00,
2013-08-02 19:38:00,77.5,73.7,29.93,East,86,0.0,11.0,88,16.08,,---,0.97,VWS V13.01,2013-08-02 23:38:00,
2013-08-02 19:43:00,77.1,73.3,29.93,East,86,0.0,11.0,88,16.08,,---,0.97,VWS V13.01,2013-08-02 23:43:00,
2013-08-02 19:48:00,76.8,73.3,29.93,East,86,0.0,11.0,89,16.08,,---,0.97,VWS V13.01,2013-08-02 23:48:00,
2013-08-02 19:53:00,76.6,73.4,29.93,East,86,0.0,11.0,90,16.08,,---,0.97,VWS V13.01,2013-08-02 23:53:00,
2013-08-02 19:58:00,76.3,73.2,29.93,East,86,0.0,11.0,90,16.08,,---,0.97,VWS V13.01,2013-08-02 23:58:00,
2013-08-02 20:03:00,76.1,73.0,29.93,East,86,0.0,11.0,90,16.08,,---,0.97,VWS V13.01,2013-08-03 00:03:00,
2013-08-02 20:08:00,75.8,73.0,29.93,East,86,0.0,11.0,91,16.08,,---,0.97,VWS V13.01,2013-08-03 00:08:00,
2013-08-02 20:13:00,75.6,73.1,29.93,East,86,0.0,11.0,92,16.08,,---,0.97,VWS V13.01,2013-08-03 00:13:00,
2013-08-02 20:18:00,75.4,72.9,29.93,East,86,0.0,11.0,92,16.08,,---,0.97,VWS V13.01,2013-08-03 00:18:00,
2013-08-02 20:23:00,75.1,72.9,29.93,East,86,0.0,11.0,93,16.08,,---,0.97,VWS V13.01,2013-08-03 00:23:00,
2013-08-02 20:28:00,74.9,72.7,29.93,East,86,0.0,11.0,93,16.08,,---,0.97,VWS V13.01,2013-08-03 00:28:00,
2013-08-02 20:33:00,74.7,72.6,29.94,East,86,0.0,11.0,93,16.08,,---,0.97,VWS V13.01,2013-08-03 00:33:00,
2013-08-02 20:38:00,74.5,72.3,29.94,East,86,0.0,11.0,93,16.08,,---,0.97,VWS V13.01,2013-08-03 00:38:00,
2013-08-02 20:43:00,74.3,72.5,29.94,East,86,0.0,11.0,94,16.08,,---,0.97,VWS V13.01,2013-08-03 00:43:00,
2013-08-02 20:48:00,74.1,72.3,29.95,East,86,0.0,11.0,94,16.08,,---,0.97,VWS V13.01,2013-08-03 00:48:00,
2013-08-02 20:53:00,73.9,72.1,29.95,East,86,0.0,11.0,94,16.08,,---,0.97,VWS V13.01,2013-08-03 00:53:00,
2013-08-02 20:58:00,73.7,71.9,29.95,East,86,0.0,11.0,94,16.08,,---,0.97,VWS V13.01,2013-08-03 00:58:00,
2013-08-02 21:03:00,73.5,71.7,29.95,East,86,0.0,11.0,94,16.08,,---,0.97,VWS V13.01,2013-08-03 01:03:00,
2013-08-02 21:08:00,73.3,71.8,29.95,East,86,0.0,11.0,95,16.08,,---,0.97,VWS V13.01,2013-08-03 01:08:00,
2013-08-02 21:13:00,73.2,71.7,29.95,East,86,0.0,11.0,95,16.08,,---,0.97,VWS V13.01,2013-08-03 01:13:00,
2013-08-02 21:18:00,73.1,71.6,29.96,East,86,0.0,11.0,95,16.08,,---,0.97,VWS V13.01,2013-08-03 01:18:00,
2013-08-02 21:23:00,72.9,71.4,29.96,East,86,0.0,11.0,95,16.08,,---,0.97,VWS V13.01,2013-08-03 01:23:00,
2013-08-02 21:28:00,72.8,71.3,29.96,East,86,0.0,11.0,95,16.08,,---,0.97,VWS V13.01,2013-08-03 01:28:00,
2013-08-02 21:33:00,72.7,71.5,29.96,East,86,0.0,11.0,96,16.08,,---,0.97,VWS V13.01,2013-08-03 01:33:00,
2013-08-02 21:38:00,72.6,71.4,29.96,East,86,0.0,11.0,96,16.08,,---,0.97,VWS V13.01,2013-08-03 01:38:00,
2013-08-02 21:43:00,72.4,71.2,29.96,East,86,0.0,11.0,96,16.08,,---,0.97,VWS V13.01,2013-08-03 01:43:00,
2013-08-02 21:48:00,72.3,71.1,29.97,East,86,0.0,11.0,96,16.08,,---,0.97,VWS V13.01,2013-08-03 01:48:00,
2013-08-02 21:53:00,72.2,71.0,29.97,East,86,0.0,11.0,96,16.08,,---,0.97,VWS V13.01,2013-08-03 01:53:00,
2013-08-02 21:58:00,72.1,70.9,29.97,East,86,0.0,11.0,96,16.08,,---,0.97,VWS V13.01,2013-08-03 01:58:00,
2013-08-02 22:03:00,71.9,70.7,29.97,East,86,0.0,11.0,96,16.08,,---,0.97,VWS V13.01,2013-08-03 02:03:00,
2013-08-02 22:08:00,71.8,70.6,29.97,East,86,0.0,11.0,96,16.08,,---,0.97,VWS V13.01,2013-08-03 02:08:00,
2013-08-02 22:13:00,71.7,70.5,29.97,East,86,0.0,11.0,96,16.08,,---,0.97,VWS V13.01,2013-08-03 02:13:00,
2013-08-02 22:18:00,71.6,70.4,29.97,East,86,0.0,11.0,96,16.08,,---,0.97,VWS V13.01,2013-08-03 02:18:00,
2013-08-02 22:23:00,71.5,70.3,29.97,East,86,0.0,11.0,96,16.08,,---,0.97,VWS V13.01,2013-08-03 02:23:00,
2013-08-02 22:28:00,71.4,70.2,29.97,East,86,0.0,11.0,96,16.08,,---,0.97,VWS V13.01,2013-08-03 02:28:00,
2013-08-02 22:33:00,71.3,70.4,29.97,East,86,0.0,11.0,97,16.08,,---,0.97,VWS V13.01,2013-08-03 02:33:00,
2013-08-02 22:38:00,71.2,70.3,29.97,East,86,0.0,11.0,97,16.08,,---,0.97,VWS V13.01,2013-08-03 02:38:00,
2013-08-02 22:43:00,71.2,70.3,29.97,East,86,0.0,11.0,97,16.08,,---,0.97,VWS V13.01,2013-08-03 02:43:00,
2013-08-02 22:48:00,71.1,70.2,29.97,East,86,0.0,11.0,97,16.08,,---,0.97,VWS V13.01,2013-08-03 02:48:00,
2013-08-02 22:53:00,71.0,70.1,29.97,East,86,0.0,11.0,97,16.08,,---,0.97,VWS V13.01,2013-08-03 02:53:00,
2013-08-02 22:58:00,70.9,70.0,29.97,East,86,0.0,11.0,97,16.08,,---,0.97,VWS V13.01,2013-08-03 02:58:00,
2013-08-02 23:03:00,70.8,69.9,29.97,East,86,0.0,11.0,97,16.08,,---,0.97,VWS V13.01,2013-08-03 03:03:00,
2013-08-02 23:08:00,70.7,69.8,29.97,East,86,0.0,11.0,97,16.08,,---,0.97,VWS V13.01,2013-08-03 03:08:00,
2013-08-02 23:13:00,70.6,69.7,29.97,East,86,0.0,11.0,97,16.08,,---,0.97,VWS V13.01,2013-08-03 03:13:00,
2013-08-02 23:18:00,70.5,69.6,29.97,East,86,0.0,11.0,97,16.08,,---,0.97,VWS V13.01,2013-08-03 03:18:00,
2013-08-02 23:23:00,70.5,69.6,29.97,East,86,0.0,11.0,97,16.08,,---,0.97,VWS V13.01,2013-08-03 03:23:00,
2013-08-02 23:28:00,70.4,69.5,29.97,East,86,0.0,11.0,97,16.08,,---,0.97,VWS V13.01,2013-08-03 03:28:00,
2013-08-02 23:33:00,70.3,69.4,29.97,East,86,0.0,11.0,97,16.08,,---,0.97,VWS V13.01,2013-08-03 03:33:00,
2013-08-02 23:38:00,70.3,69.4,29.97,East,86,0.0,11.0,97,16.08,,---,0.97,VWS V13.01,2013-08-03 03:38:00,
2013-08-02 23:43:00,70.2,69.3,29.97,East,86,0.0,11.0,97,16.08,,---,0.97,VWS V13.01,2013-08-03 03:43:00,
2013-08-02 23:48:00,70.1,69.2,29.97,East,86,0.0,11.0,97,16.08,,---,0.97,VWS V13.01,2013-08-03 03:48:00,
2013-08-02 23:53:00,70.1,69.2,29.97,East,86,0.0,11.0,97,16.08,,---,0.97,VWS V13.01,2013-08-03 03:53:00,
2013-08-02 23:58:00,70.1,69.2,29.97,East,86,0.0,11.0,97,16.08,,---,0.97,VWS V13.01,2013-08-03 03:58:00,